Terminal Aerodrome Forecast
Issued by NWS Raleigh/Durham, NC

Home | Current Version | Previous Version | Text Only | Print | Product List | Glossary On
Versions: 1 2 3 4 5 6 7 8 9 10 11 12 13 14 15 16 17 18 19 20 21 22 23 24 25 26 27 28 29 30
664
FTUS42 KRAH 212336
TAFFAY
TAF
KFAY 212336Z 2200/2224 10005KT P6SM BKN250
     FM221000 00000KT P6SM OVC060
     FM221500 13006KT P6SM BKN200=

USA.gov is the U.S. government's official web portal to all federal, state and local government web resources and services.